메인 페이지
METAR-TAF:

METAR-TAF

공항 :

Sam Mbakwe Airport

오웨리, 나이지리아

위도: 5-25-35N, 경도: 7-12-20E, 고도: 114m

METAR: 누락

시각: 10:05 (09:05 UTC)

예보

예보는 28 시간 5분 전, 05:00시(UTC)에 발표되었습니다.
예보 대상 시간: 01일 06시부터 02일 12시까지 (UTC)
kt
시정: 8000m
고도 900ft 상공 구름 보통
전환 중
01일 09시부터 01일 11시까지 (UTC)
서남서10kt
고도 1100ft 상공 구름 많음
고도 2000ft 상공 구름 조금, 적란운.
확률 30% :
일시적
01일 13시부터 01일 17시까지 (UTC)
뇌우
전환 중
01일 18시부터 01일 20시까지 (UTC)
kt
고도 900ft 상공 구름 많음

TAF: DNIM 010500Z 0106/0212 00000KT 8000 SCT009 BECMG 0109/0111 25010KT BKN011 FEW020CB PROB30 TEMPO 0113/0117 TS BECMG 0118/0120 00000KT BKN009

4,000개 이상의 공항 관측 자료 및 예보 (METAR 및 TAF 보고).

지도상에서 검색 가능한 기상관측소가 노란 점과 빨간 점으로 표시되어 있습니다.

기상관측소 명을 보려면 표시 위로 마우스를 이동하세요.

날씨 관측과 예보를 보려면 클릭하세요.

지도 변경 : 확대하려면 엑스 표시가 있는 녹색 버튼, 축소하려면 빼기 표시가 있는 녹색 버튼, 다음 페이지의 지도를 보려면 녹색 화살표를 클릭하세요.


METAR-TAF: